sensor_id;sensor_type;location;lat;lon;timestamp;P1;durP1;ratioP1;P2;durP2;ratioP2
28772;SDS011;15925;51.222;5.678;2024-03-07T00:01:49;32.17;;;13.10;;
28772;SDS011;15925;51.222;5.678;2024-03-07T00:04:15;29.57;;;13.33;;
28772;SDS011;15925;51.222;5.678;2024-03-07T00:06:41;22.07;;;9.93;;
28772;SDS011;15925;51.222;5.678;2024-03-07T00:09:07;28.58;;;11.02;;
28772;SDS011;15925;51.222;5.678;2024-03-07T00:11:34;26.02;;;10.20;;
28772;SDS011;15925;51.222;5.678;2024-03-07T00:14:00;25.95;;;11.45;;
28772;SDS011;15925;51.222;5.678;2024-03-07T00:16:26;30.50;;;12.23;;
28772;SDS011;15925;51.222;5.678;2024-03-07T00:18:52;32.28;;;9.40;;
28772;SDS011;15925;51.222;5.678;2024-03-07T00:21:18;32.27;;;9.67;;
28772;SDS011;15925;51.222;5.678;2024-03-07T00:23:44;35.65;;;12.25;;
28772;SDS011;15925;51.222;5.678;2024-03-07T00:26:10;31.47;;;10.03;;
28772;SDS011;15925;51.222;5.678;2024-03-07T00:28:35;26.00;;;10.80;;
28772;SDS011;15925;51.222;5.678;2024-03-07T00:31:04;27.00;;;9.10;;
28772;SDS011;15925;51.222;5.678;2024-03-07T00:33:32;35.20;;;11.77;;
28772;SDS011;15925;51.222;5.678;2024-03-07T00:35:58;32.97;;;13.32;;
28772;SDS011;15925;51.222;5.678;2024-03-07T00:40:51;35.47;;;13.73;;
28772;SDS011;15925;51.222;5.678;2024-03-07T00:43:16;37.00;;;13.82;;
28772;SDS011;15925;51.222;5.678;2024-03-07T00:45:42;47.10;;;14.63;;
28772;SDS011;15925;51.222;5.678;2024-03-07T00:48:08;30.77;;;13.47;;
28772;SDS011;15925;51.222;5.678;2024-03-07T00:50:34;37.55;;;12.57;;
28772;SDS011;15925;51.222;5.678;2024-03-07T00:53:00;41.73;;;13.53;;
28772;SDS011;15925;51.222;5.678;2024-03-07T00:55:26;46.30;;;17.07;;
28772;SDS011;15925;51.222;5.678;2024-03-07T00:57:51;51.40;;;15.37;;
28772;SDS011;15925;51.222;5.678;2024-03-07T01:00:17;39.50;;;14.03;;
28772;SDS011;15925;51.222;5.678;2024-03-07T01:02:46;33.03;;;13.63;;
28772;SDS011;15925;51.222;5.678;2024-03-07T01:05:12;40.75;;;15.43;;
28772;SDS011;15925;51.222;5.678;2024-03-07T01:07:38;42.83;;;14.38;;
28772;SDS011;15925;51.222;5.678;2024-03-07T01:10:05;38.72;;;13.75;;
28772;SDS011;15925;51.222;5.678;2024-03-07T01:12:32;43.45;;;14.40;;
28772;SDS011;15925;51.222;5.678;2024-03-07T01:14:59;45.08;;;15.07;;
28772;SDS011;15925;51.222;5.678;2024-03-07T01:17:25;31.60;;;12.35;;
28772;SDS011;15925;51.222;5.678;2024-03-07T01:19:52;44.28;;;14.68;;
28772;SDS011;15925;51.222;5.678;2024-03-07T01:22:17;32.33;;;12.23;;
28772;SDS011;15925;51.222;5.678;2024-03-07T01:24:43;35.50;;;10.97;;
28772;SDS011;15925;51.222;5.678;2024-03-07T01:27:10;35.90;;;12.50;;
28772;SDS011;15925;51.222;5.678;2024-03-07T01:29:35;41.33;;;14.53;;
28772;SDS011;15925;51.222;5.678;2024-03-07T01:32:01;44.13;;;14.63;;
28772;SDS011;15925;51.222;5.678;2024-03-07T01:36:53;43.67;;;13.63;;
28772;SDS011;15925;51.222;5.678;2024-03-07T01:39:19;38.03;;;15.30;;
28772;SDS011;15925;51.222;5.678;2024-03-07T01:41:45;39.00;;;15.03;;
28772;SDS011;15925;51.222;5.678;2024-03-07T01:44:10;47.70;;;13.80;;
28772;SDS011;15925;51.222;5.678;2024-03-07T01:46:36;25.47;;;12.13;;
28772;SDS011;15925;51.222;5.678;2024-03-07T01:49:02;34.53;;;12.73;;
28772;SDS011;15925;51.222;5.678;2024-03-07T01:51:28;32.13;;;13.20;;
28772;SDS011;15925;51.222;5.678;2024-03-07T01:53:54;49.03;;;15.32;;
28772;SDS011;15925;51.222;5.678;2024-03-07T01:56:20;33.03;;;15.63;;
28772;SDS011;15925;51.222;5.678;2024-03-07T01:58:46;48.38;;;14.20;;
28772;SDS011;15925;51.222;5.678;2024-03-07T02:01:12;45.80;;;14.90;;
28772;SDS011;15925;51.222;5.678;2024-03-07T02:03:40;43.28;;;16.65;;
28772;SDS011;15925;51.222;5.678;2024-03-07T02:06:07;34.47;;;12.70;;
28772;SDS011;15925;51.222;5.678;2024-03-07T02:08:33;40.47;;;15.63;;
28772;SDS011;15925;51.222;5.678;2024-03-07T02:11:00;49.25;;;15.65;;
28772;SDS011;15925;51.222;5.678;2024-03-07T02:13:26;37.10;;;13.43;;
28772;SDS011;15925;51.222;5.678;2024-03-07T02:15:52;47.85;;;14.60;;
28772;SDS011;15925;51.222;5.678;2024-03-07T02:18:19;45.75;;;15.77;;
28772;SDS011;15925;51.222;5.678;2024-03-07T02:20:45;42.88;;;14.90;;
28772;SDS011;15925;51.222;5.678;2024-03-07T02:23:11;49.58;;;16.55;;
28772;SDS011;15925;51.222;5.678;2024-03-07T02:25:38;58.38;;;15.07;;
28772;SDS011;15925;51.222;5.678;2024-03-07T02:28:04;47.03;;;15.45;;
28772;SDS011;15925;51.222;5.678;2024-03-07T02:30:30;46.47;;;15.20;;
28772;SDS011;15925;51.222;5.678;2024-03-07T02:32:59;47.70;;;14.40;;
28772;SDS011;15925;51.222;5.678;2024-03-07T02:35:34;35.92;;;15.95;;
28772;SDS011;15925;51.222;5.678;2024-03-07T02:38:04;51.63;;;18.05;;
28772;SDS011;15925;51.222;5.678;2024-03-07T02:40:33;56.85;;;15.25;;
28772;SDS011;15925;51.222;5.678;2024-03-07T02:42:59;34.63;;;14.10;;
28772;SDS011;15925;51.222;5.678;2024-03-07T02:45:25;40.95;;;14.73;;
28772;SDS011;15925;51.222;5.678;2024-03-07T02:47:51;44.45;;;15.63;;
28772;SDS011;15925;51.222;5.678;2024-03-07T02:50:18;40.35;;;13.60;;
28772;SDS011;15925;51.222;5.678;2024-03-07T02:52:49;39.95;;;13.77;;
28772;SDS011;15925;51.222;5.678;2024-03-07T02:55:17;44.80;;;16.05;;
28772;SDS011;15925;51.222;5.678;2024-03-07T02:57:44;52.13;;;15.27;;
28772;SDS011;15925;51.222;5.678;2024-03-07T03:00:10;48.47;;;15.02;;
28772;SDS011;15925;51.222;5.678;2024-03-07T03:02:51;55.35;;;16.20;;
28772;SDS011;15925;51.222;5.678;2024-03-07T03:07:44;40.88;;;13.98;;
28772;SDS011;15925;51.222;5.678;2024-03-07T03:10:26;49.20;;;17.90;;
28772;SDS011;15925;51.222;5.678;2024-03-07T03:12:57;58.50;;;17.60;;
28772;SDS011;15925;51.222;5.678;2024-03-07T03:15:24;46.95;;;15.82;;
28772;SDS011;15925;51.222;5.678;2024-03-07T03:17:50;41.08;;;15.95;;
28772;SDS011;15925;51.222;5.678;2024-03-07T03:22:58;37.33;;;14.45;;
28772;SDS011;15925;51.222;5.678;2024-03-07T03:25:25;45.53;;;15.48;;
28772;SDS011;15925;51.222;5.678;2024-03-07T03:27:51;47.45;;;15.25;;
28772;SDS011;15925;51.222;5.678;2024-03-07T03:32:47;46.15;;;13.88;;
28772;SDS011;15925;51.222;5.678;2024-03-07T03:35:16;54.38;;;17.27;;
28772;SDS011;15925;51.222;5.678;2024-03-07T03:37:42;38.83;;;15.38;;
28772;SDS011;15925;51.222;5.678;2024-03-07T03:40:08;48.30;;;15.27;;
28772;SDS011;15925;51.222;5.678;2024-03-07T03:45:02;52.53;;;17.23;;
28772;SDS011;15925;51.222;5.678;2024-03-07T03:47:35;43.75;;;15.50;;
28772;SDS011;15925;51.222;5.678;2024-03-07T03:50:05;52.67;;;16.42;;
28772;SDS011;15925;51.222;5.678;2024-03-07T03:52:31;44.13;;;16.42;;
28772;SDS011;15925;51.222;5.678;2024-03-07T03:54:58;76.35;;;17.55;;
28772;SDS011;15925;51.222;5.678;2024-03-07T03:57:25;52.80;;;16.75;;
28772;SDS011;15925;51.222;5.678;2024-03-07T03:59:51;42.95;;;15.07;;
28772;SDS011;15925;51.222;5.678;2024-03-07T04:02:17;44.72;;;14.55;;
28772;SDS011;15925;51.222;5.678;2024-03-07T04:04:44;55.38;;;16.58;;
28772;SDS011;15925;51.222;5.678;2024-03-07T04:07:11;46.08;;;14.80;;
28772;SDS011;15925;51.222;5.678;2024-03-07T04:09:37;47.45;;;18.50;;
28772;SDS011;15925;51.222;5.678;2024-03-07T04:12:03;41.33;;;14.77;;
28772;SDS011;15925;51.222;5.678;2024-03-07T04:16:58;44.08;;;14.20;;
28772;SDS011;15925;51.222;5.678;2024-03-07T04:19:24;45.83;;;14.18;;
28772;SDS011;15925;51.222;5.678;2024-03-07T04:24:16;42.63;;;16.20;;
28772;SDS011;15925;51.222;5.678;2024-03-07T04:26:42;49.65;;;15.82;;
28772;SDS011;15925;51.222;5.678;2024-03-07T04:29:08;55.13;;;16.80;;
28772;SDS011;15925;51.222;5.678;2024-03-07T04:31:34;58.95;;;15.15;;
28772;SDS011;15925;51.222;5.678;2024-03-07T04:34:00;45.47;;;15.23;;
28772;SDS011;15925;51.222;5.678;2024-03-07T04:36:25;58.73;;;16.80;;
28772;SDS011;15925;51.222;5.678;2024-03-07T04:38:52;60.60;;;15.67;;
28772;SDS011;15925;51.222;5.678;2024-03-07T04:41:18;48.78;;;17.02;;
28772;SDS011;15925;51.222;5.678;2024-03-07T04:43:44;49.33;;;15.97;;
28772;SDS011;15925;51.222;5.678;2024-03-07T04:46:10;51.20;;;15.13;;
28772;SDS011;15925;51.222;5.678;2024-03-07T04:48:36;48.25;;;14.50;;
28772;SDS011;15925;51.222;5.678;2024-03-07T04:51:02;46.38;;;15.10;;
28772;SDS011;15925;51.222;5.678;2024-03-07T04:53:28;43.15;;;15.27;;
28772;SDS011;15925;51.222;5.678;2024-03-07T04:55:54;33.63;;;12.77;;
28772;SDS011;15925;51.222;5.678;2024-03-07T04:58:21;51.70;;;17.10;;
28772;SDS011;15925;51.222;5.678;2024-03-07T05:00:47;44.25;;;15.68;;
28772;SDS011;15925;51.222;5.678;2024-03-07T05:03:12;43.23;;;14.37;;
28772;SDS011;15925;51.222;5.678;2024-03-07T05:05:38;25.70;;;10.73;;
28772;SDS011;15925;51.222;5.678;2024-03-07T05:08:06;41.05;;;13.13;;
28772;SDS011;15925;51.222;5.678;2024-03-07T05:10:31;35.57;;;15.17;;
28772;SDS011;15925;51.222;5.678;2024-03-07T05:12:57;40.35;;;14.85;;
28772;SDS011;15925;51.222;5.678;2024-03-07T05:15:26;45.92;;;14.90;;
28772;SDS011;15925;51.222;5.678;2024-03-07T05:17:52;32.47;;;13.32;;
28772;SDS011;15925;51.222;5.678;2024-03-07T05:20:18;35.13;;;13.82;;
28772;SDS011;15925;51.222;5.678;2024-03-07T05:22:43;29.83;;;13.45;;
28772;SDS011;15925;51.222;5.678;2024-03-07T05:25:13;35.45;;;13.00;;
28772;SDS011;15925;51.222;5.678;2024-03-07T05:27:38;40.90;;;15.43;;
28772;SDS011;15925;51.222;5.678;2024-03-07T05:30:04;33.73;;;12.63;;
28772;SDS011;15925;51.222;5.678;2024-03-07T05:32:31;38.30;;;14.18;;
28772;SDS011;15925;51.222;5.678;2024-03-07T05:34:59;34.08;;;12.38;;
28772;SDS011;15925;51.222;5.678;2024-03-07T05:37:25;39.55;;;13.23;;
28772;SDS011;15925;51.222;5.678;2024-03-07T05:39:51;33.73;;;11.93;;
28772;SDS011;15925;51.222;5.678;2024-03-07T05:42:17;42.50;;;15.45;;
28772;SDS011;15925;51.222;5.678;2024-03-07T05:44:43;48.42;;;16.35;;
28772;SDS011;15925;51.222;5.678;2024-03-07T05:49:38;38.42;;;12.77;;
28772;SDS011;15925;51.222;5.678;2024-03-07T05:52:04;34.75;;;10.95;;
28772;SDS011;15925;51.222;5.678;2024-03-07T05:54:33;35.58;;;14.80;;
28772;SDS011;15925;51.222;5.678;2024-03-07T05:56:59;30.88;;;12.00;;
28772;SDS011;15925;51.222;5.678;2024-03-07T05:59:26;52.85;;;14.43;;
28772;SDS011;15925;51.222;5.678;2024-03-07T06:01:54;31.35;;;11.75;;
28772;SDS011;15925;51.222;5.678;2024-03-07T06:06:46;32.88;;;11.88;;
28772;SDS011;15925;51.222;5.678;2024-03-07T06:09:13;39.83;;;13.50;;
28772;SDS011;15925;51.222;5.678;2024-03-07T06:11:40;35.58;;;12.85;;
28772;SDS011;15925;51.222;5.678;2024-03-07T06:14:09;45.60;;;15.88;;
28772;SDS011;15925;51.222;5.678;2024-03-07T06:16:38;39.80;;;14.48;;
28772;SDS011;15925;51.222;5.678;2024-03-07T06:21:36;37.80;;;12.10;;
28772;SDS011;15925;51.222;5.678;2024-03-07T06:24:04;45.03;;;14.90;;
28772;SDS011;15925;51.222;5.678;2024-03-07T06:26:33;39.15;;;14.80;;
28772;SDS011;15925;51.222;5.678;2024-03-07T06:29:10;42.58;;;15.18;;
28772;SDS011;15925;51.222;5.678;2024-03-07T06:31:39;36.53;;;13.13;;
28772;SDS011;15925;51.222;5.678;2024-03-07T06:34:08;28.67;;;13.65;;
28772;SDS011;15925;51.222;5.678;2024-03-07T06:36:34;37.83;;;14.40;;
28772;SDS011;15925;51.222;5.678;2024-03-07T06:39:01;49.22;;;15.80;;
28772;SDS011;15925;51.222;5.678;2024-03-07T06:41:31;41.28;;;15.65;;
28772;SDS011;15925;51.222;5.678;2024-03-07T06:43:57;44.47;;;16.30;;
28772;SDS011;15925;51.222;5.678;2024-03-07T06:46:23;44.97;;;15.33;;
28772;SDS011;15925;51.222;5.678;2024-03-07T06:48:49;45.22;;;15.88;;
28772;SDS011;15925;51.222;5.678;2024-03-07T06:53:45;39.83;;;13.90;;
28772;SDS011;15925;51.222;5.678;2024-03-07T06:56:15;37.78;;;14.93;;
28772;SDS011;15925;51.222;5.678;2024-03-07T06:58:41;47.63;;;17.33;;
28772;SDS011;15925;51.222;5.678;2024-03-07T07:01:08;34.40;;;15.05;;
28772;SDS011;15925;51.222;5.678;2024-03-07T07:03:36;42.65;;;16.10;;
28772;SDS011;15925;51.222;5.678;2024-03-07T07:06:03;42.45;;;15.15;;
28772;SDS011;15925;51.222;5.678;2024-03-07T07:08:31;43.08;;;16.83;;
28772;SDS011;15925;51.222;5.678;2024-03-07T07:13:23;48.28;;;13.73;;
28772;SDS011;15925;51.222;5.678;2024-03-07T07:15:49;63.05;;;16.27;;
28772;SDS011;15925;51.222;5.678;2024-03-07T07:18:15;46.65;;;16.08;;
28772;SDS011;15925;51.222;5.678;2024-03-07T07:20:41;43.28;;;15.50;;
28772;SDS011;15925;51.222;5.678;2024-03-07T07:23:07;33.55;;;15.25;;
28772;SDS011;15925;51.222;5.678;2024-03-07T07:25:33;48.27;;;16.67;;
28772;SDS011;15925;51.222;5.678;2024-03-07T07:27:59;39.90;;;14.93;;
28772;SDS011;15925;51.222;5.678;2024-03-07T07:30:25;50.70;;;15.80;;
28772;SDS011;15925;51.222;5.678;2024-03-07T07:32:52;42.83;;;16.30;;
28772;SDS011;15925;51.222;5.678;2024-03-07T07:35:21;48.85;;;17.77;;
28772;SDS011;15925;51.222;5.678;2024-03-07T07:37:48;43.67;;;15.55;;
28772;SDS011;15925;51.222;5.678;2024-03-07T07:40:19;44.58;;;14.50;;
28772;SDS011;15925;51.222;5.678;2024-03-07T07:42:51;41.42;;;16.15;;
28772;SDS011;15925;51.222;5.678;2024-03-07T07:45:17;38.95;;;15.57;;
28772;SDS011;15925;51.222;5.678;2024-03-07T07:47:45;54.88;;;17.63;;
28772;SDS011;15925;51.222;5.678;2024-03-07T07:50:18;53.30;;;17.55;;
28772;SDS011;15925;51.222;5.678;2024-03-07T07:55:22;55.42;;;17.52;;
28772;SDS011;15925;51.222;5.678;2024-03-07T07:57:56;39.13;;;17.27;;
28772;SDS011;15925;51.222;5.678;2024-03-07T08:00:23;42.30;;;16.98;;
28772;SDS011;15925;51.222;5.678;2024-03-07T08:05:32;41.13;;;15.55;;
28772;SDS011;15925;51.222;5.678;2024-03-07T08:08:00;50.47;;;16.38;;
28772;SDS011;15925;51.222;5.678;2024-03-07T08:10:31;37.70;;;16.42;;
28772;SDS011;15925;51.222;5.678;2024-03-07T08:12:59;55.67;;;19.83;;
28772;SDS011;15925;51.222;5.678;2024-03-07T08:15:26;59.83;;;18.13;;
28772;SDS011;15925;51.222;5.678;2024-03-07T08:17:53;48.88;;;17.83;;
28772;SDS011;15925;51.222;5.678;2024-03-07T08:20:20;53.03;;;16.10;;
28772;SDS011;15925;51.222;5.678;2024-03-07T08:22:48;48.28;;;17.17;;
28772;SDS011;15925;51.222;5.678;2024-03-07T08:25:18;48.38;;;17.63;;
28772;SDS011;15925;51.222;5.678;2024-03-07T08:27:51;49.55;;;17.02;;
28772;SDS011;15925;51.222;5.678;2024-03-07T08:30:18;32.70;;;13.73;;
28772;SDS011;15925;51.222;5.678;2024-03-07T08:32:51;55.70;;;16.35;;
28772;SDS011;15925;51.222;5.678;2024-03-07T08:35:19;40.08;;;17.17;;
28772;SDS011;15925;51.222;5.678;2024-03-07T08:37:46;39.05;;;14.43;;
28772;SDS011;15925;51.222;5.678;2024-03-07T08:40:18;38.65;;;15.82;;
28772;SDS011;15925;51.222;5.678;2024-03-07T08:45:19;38.10;;;15.13;;
28772;SDS011;15925;51.222;5.678;2024-03-07T08:47:55;46.05;;;16.15;;
28772;SDS011;15925;51.222;5.678;2024-03-07T08:50:22;55.17;;;15.90;;
28772;SDS011;15925;51.222;5.678;2024-03-07T08:55:15;45.35;;;15.57;;
28772;SDS011;15925;51.222;5.678;2024-03-07T08:57:42;44.60;;;15.05;;
28772;SDS011;15925;51.222;5.678;2024-03-07T09:00:11;45.75;;;14.43;;
28772;SDS011;15925;51.222;5.678;2024-03-07T09:02:47;41.40;;;14.05;;
28772;SDS011;15925;51.222;5.678;2024-03-07T09:05:20;39.50;;;15.40;;
28772;SDS011;15925;51.222;5.678;2024-03-07T09:07:50;45.30;;;14.98;;
28772;SDS011;15925;51.222;5.678;2024-03-07T09:10:16;44.05;;;13.68;;
28772;SDS011;15925;51.222;5.678;2024-03-07T09:12:43;57.78;;;14.48;;
28772;SDS011;15925;51.222;5.678;2024-03-07T09:15:09;40.85;;;14.57;;
28772;SDS011;15925;51.222;5.678;2024-03-07T09:17:36;37.55;;;14.13;;
28772;SDS011;15925;51.222;5.678;2024-03-07T09:20:03;43.08;;;17.35;;
28772;SDS011;15925;51.222;5.678;2024-03-07T09:22:34;35.50;;;12.60;;
28772;SDS011;15925;51.222;5.678;2024-03-07T09:25:00;51.60;;;18.67;;
28772;SDS011;15925;51.222;5.678;2024-03-07T09:27:26;48.72;;;13.10;;
28772;SDS011;15925;51.222;5.678;2024-03-07T09:29:52;37.57;;;14.00;;
28772;SDS011;15925;51.222;5.678;2024-03-07T09:32:18;36.13;;;13.60;;
28772;SDS011;15925;51.222;5.678;2024-03-07T09:34:47;39.45;;;13.82;;
28772;SDS011;15925;51.222;5.678;2024-03-07T09:37:12;37.33;;;13.60;;
28772;SDS011;15925;51.222;5.678;2024-03-07T09:39:38;44.13;;;14.70;;
28772;SDS011;15925;51.222;5.678;2024-03-07T09:42:07;33.83;;;13.63;;
28772;SDS011;15925;51.222;5.678;2024-03-07T09:44:38;35.22;;;13.25;;
28772;SDS011;15925;51.222;5.678;2024-03-07T09:47:05;36.13;;;13.43;;
28772;SDS011;15925;51.222;5.678;2024-03-07T09:49:32;34.10;;;14.25;;
28772;SDS011;15925;51.222;5.678;2024-03-07T09:52:02;32.00;;;13.90;;
28772;SDS011;15925;51.222;5.678;2024-03-07T09:54:33;31.13;;;13.82;;
28772;SDS011;15925;51.222;5.678;2024-03-07T09:57:03;46.92;;;14.48;;
28772;SDS011;15925;51.222;5.678;2024-03-07T09:59:36;40.28;;;13.27;;
28772;SDS011;15925;51.222;5.678;2024-03-07T10:02:05;30.55;;;11.38;;
28772;SDS011;15925;51.222;5.678;2024-03-07T10:07:16;28.17;;;12.00;;
28772;SDS011;15925;51.222;5.678;2024-03-07T10:09:44;27.45;;;12.18;;
28772;SDS011;15925;51.222;5.678;2024-03-07T10:12:10;26.42;;;11.90;;
28772;SDS011;15925;51.222;5.678;2024-03-07T10:14:49;35.47;;;12.07;;
28772;SDS011;15925;51.222;5.678;2024-03-07T10:17:17;30.90;;;12.65;;
28772;SDS011;15925;51.222;5.678;2024-03-07T10:19:46;33.55;;;10.23;;
28772;SDS011;15925;51.222;5.678;2024-03-07T10:22:14;34.40;;;10.98;;
28772;SDS011;15925;51.222;5.678;2024-03-07T10:24:48;40.50;;;10.93;;
28772;SDS011;15925;51.222;5.678;2024-03-07T10:27:19;34.38;;;13.10;;
28772;SDS011;15925;51.222;5.678;2024-03-07T10:29:48;26.20;;;11.75;;
28772;SDS011;15925;51.222;5.678;2024-03-07T10:32:20;31.42;;;11.82;;
28772;SDS011;15925;51.222;5.678;2024-03-07T10:34:50;37.08;;;12.85;;
28772;SDS011;15925;51.222;5.678;2024-03-07T10:37:16;32.92;;;13.05;;
28772;SDS011;15925;51.222;5.678;2024-03-07T10:39:44;34.35;;;12.65;;
28772;SDS011;15925;51.222;5.678;2024-03-07T10:42:12;36.08;;;12.15;;
28772;SDS011;15925;51.222;5.678;2024-03-07T10:44:44;31.77;;;11.75;;
28772;SDS011;15925;51.222;5.678;2024-03-07T10:47:17;26.27;;;11.88;;
28772;SDS011;15925;51.222;5.678;2024-03-07T11:01:19;19.83;;;10.00;;
28772;SDS011;15925;51.222;5.678;2024-03-07T11:03:48;33.00;;;10.55;;
28772;SDS011;15925;51.222;5.678;2024-03-07T11:06:17;27.92;;;10.63;;
28772;SDS011;15925;51.222;5.678;2024-03-07T11:08:43;18.73;;;9.48;;
28772;SDS011;15925;51.222;5.678;2024-03-07T11:11:11;33.30;;;11.18;;
28772;SDS011;15925;51.222;5.678;2024-03-07T11:13:37;26.73;;;9.63;;
28772;SDS011;15925;51.222;5.678;2024-03-07T11:16:04;25.15;;;8.52;;
28772;SDS011;15925;51.222;5.678;2024-03-07T11:18:32;23.67;;;9.18;;
28772;SDS011;15925;51.222;5.678;2024-03-07T11:20:57;15.77;;;8.23;;
28772;SDS011;15925;51.222;5.678;2024-03-07T11:23:30;17.43;;;8.80;;
28772;SDS011;15925;51.222;5.678;2024-03-07T11:26:07;14.75;;;6.93;;
28772;SDS011;15925;51.222;5.678;2024-03-07T11:28:33;17.38;;;7.63;;
28772;SDS011;15925;51.222;5.678;2024-03-07T11:31:12;18.70;;;7.30;;
28772;SDS011;15925;51.222;5.678;2024-03-07T11:36:45;15.85;;;6.75;;
28772;SDS011;15925;51.222;5.678;2024-03-07T11:42:46;13.80;;;6.43;;
28772;SDS011;15925;51.222;5.678;2024-03-07T11:45:08;23.98;;;7.63;;
28772;SDS011;15925;51.222;5.678;2024-03-07T11:47:37;16.80;;;6.28;;
28772;SDS011;15925;51.222;5.678;2024-03-07T11:50:04;16.70;;;7.72;;
28772;SDS011;15925;51.222;5.678;2024-03-07T11:52:36;16.30;;;6.38;;
28772;SDS011;15925;51.222;5.678;2024-03-07T11:55:07;22.13;;;8.35;;
28772;SDS011;15925;51.222;5.678;2024-03-07T11:57:33;23.73;;;7.72;;
28772;SDS011;15925;51.222;5.678;2024-03-07T11:59:59;16.70;;;7.75;;
28772;SDS011;15925;51.222;5.678;2024-03-07T12:02:26;15.23;;;6.68;;
28772;SDS011;15925;51.222;5.678;2024-03-07T12:04:53;24.83;;;8.07;;
28772;SDS011;15925;51.222;5.678;2024-03-07T12:07:19;20.48;;;8.48;;
28772;SDS011;15925;51.222;5.678;2024-03-07T12:09:48;19.60;;;7.88;;
28772;SDS011;15925;51.222;5.678;2024-03-07T12:12:21;20.33;;;7.70;;
28772;SDS011;15925;51.222;5.678;2024-03-07T12:14:47;20.23;;;8.27;;
28772;SDS011;15925;51.222;5.678;2024-03-07T12:17:16;20.38;;;7.80;;
28772;SDS011;15925;51.222;5.678;2024-03-07T12:19:42;23.30;;;7.72;;
28772;SDS011;15925;51.222;5.678;2024-03-07T12:22:09;19.58;;;8.13;;
28772;SDS011;15925;51.222;5.678;2024-03-07T12:24:40;17.45;;;7.85;;
28772;SDS011;15925;51.222;5.678;2024-03-07T12:27:07;11.98;;;7.25;;
28772;SDS011;15925;51.222;5.678;2024-03-07T12:29:40;21.85;;;7.28;;
28772;SDS011;15925;51.222;5.678;2024-03-07T12:32:08;13.35;;;6.47;;
28772;SDS011;15925;51.222;5.678;2024-03-07T12:34:39;16.63;;;7.78;;
28772;SDS011;15925;51.222;5.678;2024-03-07T12:37:10;15.55;;;7.55;;
28772;SDS011;15925;51.222;5.678;2024-03-07T12:39:41;14.13;;;7.82;;
28772;SDS011;15925;51.222;5.678;2024-03-07T12:42:17;20.63;;;7.97;;
28772;SDS011;15925;51.222;5.678;2024-03-07T12:44:45;18.52;;;6.93;;
28772;SDS011;15925;51.222;5.678;2024-03-07T12:47:15;14.23;;;6.20;;
28772;SDS011;15925;51.222;5.678;2024-03-07T12:49:44;15.18;;;6.35;;
28772;SDS011;15925;51.222;5.678;2024-03-07T12:52:13;26.23;;;7.45;;
28772;SDS011;15925;51.222;5.678;2024-03-07T12:54:40;13.68;;;7.35;;
28772;SDS011;15925;51.222;5.678;2024-03-07T12:59:42;18.27;;;7.43;;
28772;SDS011;15925;51.222;5.678;2024-03-07T13:02:08;19.48;;;7.00;;
28772;SDS011;15925;51.222;5.678;2024-03-07T13:04:37;15.57;;;7.18;;
28772;SDS011;15925;51.222;5.678;2024-03-07T13:07:04;17.02;;;7.05;;
28772;SDS011;15925;51.222;5.678;2024-03-07T13:09:31;17.00;;;8.10;;
28772;SDS011;15925;51.222;5.678;2024-03-07T13:11:57;17.35;;;7.35;;
28772;SDS011;15925;51.222;5.678;2024-03-07T13:14:26;18.75;;;7.28;;
28772;SDS011;15925;51.222;5.678;2024-03-07T13:17:00;28.52;;;6.97;;
28772;SDS011;15925;51.222;5.678;2024-03-07T13:19:28;22.55;;;7.40;;
28772;SDS011;15925;51.222;5.678;2024-03-07T13:21:54;22.33;;;8.52;;
28772;SDS011;15925;51.222;5.678;2024-03-07T13:24:24;18.17;;;6.22;;
28772;SDS011;15925;51.222;5.678;2024-03-07T13:26:52;24.30;;;7.97;;
28772;SDS011;15925;51.222;5.678;2024-03-07T13:29:18;19.67;;;7.72;;
28772;SDS011;15925;51.222;5.678;2024-03-07T13:31:50;14.15;;;6.70;;
28772;SDS011;15925;51.222;5.678;2024-03-07T13:34:17;25.38;;;6.75;;
28772;SDS011;15925;51.222;5.678;2024-03-07T13:36:43;16.33;;;6.72;;
28772;SDS011;15925;51.222;5.678;2024-03-07T13:39:10;19.95;;;6.82;;
28772;SDS011;15925;51.222;5.678;2024-03-07T13:41:38;15.50;;;6.60;;
28772;SDS011;15925;51.222;5.678;2024-03-07T13:44:04;16.77;;;6.95;;
28772;SDS011;15925;51.222;5.678;2024-03-07T13:46:30;13.68;;;6.25;;
28772;SDS011;15925;51.222;5.678;2024-03-07T13:48:59;12.95;;;5.88;;
28772;SDS011;15925;51.222;5.678;2024-03-07T13:51:32;14.05;;;6.18;;
28772;SDS011;15925;51.222;5.678;2024-03-07T13:54:01;10.38;;;5.80;;
28772;SDS011;15925;51.222;5.678;2024-03-07T14:05:36;14.60;;;6.63;;
28772;SDS011;15925;51.222;5.678;2024-03-07T14:31:13;23.50;;;6.35;;
28772;SDS011;15925;51.222;5.678;2024-03-07T14:33:49;14.03;;;7.23;;
28772;SDS011;15925;51.222;5.678;2024-03-07T14:36:41;15.95;;;7.07;;
28772;SDS011;15925;51.222;5.678;2024-03-07T14:39:13;17.35;;;6.28;;
28772;SDS011;15925;51.222;5.678;2024-03-07T14:44:26;14.00;;;6.45;;
28772;SDS011;15925;51.222;5.678;2024-03-07T14:46:54;17.30;;;6.35;;
28772;SDS011;15925;51.222;5.678;2024-03-07T14:49:24;11.55;;;6.43;;
28772;SDS011;15925;51.222;5.678;2024-03-07T14:51:50;14.05;;;6.55;;
28772;SDS011;15925;51.222;5.678;2024-03-07T14:54:19;17.77;;;6.63;;
28772;SDS011;15925;51.222;5.678;2024-03-07T14:56:48;14.90;;;7.03;;
28772;SDS011;15925;51.222;5.678;2024-03-07T14:59:15;24.50;;;5.75;;
28772;SDS011;15925;51.222;5.678;2024-03-07T15:01:41;18.83;;;6.35;;
28772;SDS011;15925;51.222;5.678;2024-03-07T15:04:06;11.43;;;5.00;;
28772;SDS011;15925;51.222;5.678;2024-03-07T15:06:36;14.77;;;5.80;;
28772;SDS011;15925;51.222;5.678;2024-03-07T15:09:03;17.05;;;6.03;;
28772;SDS011;15925;51.222;5.678;2024-03-07T15:11:35;16.42;;;6.95;;
28772;SDS011;15925;51.222;5.678;2024-03-07T15:14:08;19.35;;;7.90;;
28772;SDS011;15925;51.222;5.678;2024-03-07T15:16:37;17.08;;;6.38;;
28772;SDS011;15925;51.222;5.678;2024-03-07T15:19:04;15.07;;;6.80;;
28772;SDS011;15925;51.222;5.678;2024-03-07T15:21:32;21.05;;;7.07;;
28772;SDS011;15925;51.222;5.678;2024-03-07T15:23:58;16.83;;;6.93;;
28772;SDS011;15925;51.222;5.678;2024-03-07T15:26:25;19.48;;;6.82;;
28772;SDS011;15925;51.222;5.678;2024-03-07T15:28:52;21.08;;;8.10;;
28772;SDS011;15925;51.222;5.678;2024-03-07T15:31:20;23.88;;;7.85;;
28772;SDS011;15925;51.222;5.678;2024-03-07T15:33:46;16.20;;;6.43;;
28772;SDS011;15925;51.222;5.678;2024-03-07T15:36:13;23.38;;;8.77;;
28772;SDS011;15925;51.222;5.678;2024-03-07T15:38:39;20.85;;;8.95;;
28772;SDS011;15925;51.222;5.678;2024-03-07T15:41:04;15.30;;;6.57;;
28772;SDS011;15925;51.222;5.678;2024-03-07T15:43:33;20.98;;;8.15;;
28772;SDS011;15925;51.222;5.678;2024-03-07T15:45:59;19.90;;;7.38;;
28772;SDS011;15925;51.222;5.678;2024-03-07T15:48:25;20.00;;;7.13;;
28772;SDS011;15925;51.222;5.678;2024-03-07T15:50:51;17.70;;;7.60;;
28772;SDS011;15925;51.222;5.678;2024-03-07T15:53:17;26.63;;;8.13;;
28772;SDS011;15925;51.222;5.678;2024-03-07T15:55:44;24.48;;;8.05;;
28772;SDS011;15925;51.222;5.678;2024-03-07T15:58:10;15.85;;;7.65;;
28772;SDS011;15925;51.222;5.678;2024-03-07T16:00:36;15.80;;;6.13;;
28772;SDS011;15925;51.222;5.678;2024-03-07T16:05:33;20.15;;;6.65;;
28772;SDS011;15925;51.222;5.678;2024-03-07T16:10:29;17.65;;;8.40;;
28772;SDS011;15925;51.222;5.678;2024-03-07T16:12:56;16.17;;;6.85;;
28772;SDS011;15925;51.222;5.678;2024-03-07T16:15:22;19.95;;;7.55;;